createdAt,value
2023-05-11T00:01:07.709Z,17.70
2023-05-11T00:03:39.443Z,15.93
2023-05-11T00:06:09.194Z,15.13
2023-05-11T00:08:38.903Z,13.23
2023-05-11T00:11:10.406Z,13.00
2023-05-11T00:13:39.745Z,12.80
2023-05-11T00:16:09.180Z,20.50
2023-05-11T00:18:45.734Z,15.98
2023-05-11T00:21:15.373Z,14.63
2023-05-11T00:23:51.247Z,12.35
2023-05-11T00:26:20.973Z,15.35
2023-05-11T00:28:50.681Z,14.70
2023-05-11T00:31:20.088Z,13.63
2023-05-11T00:33:51.676Z,15.82
2023-05-11T00:36:20.925Z,18.70
2023-05-11T00:38:50.245Z,16.30
2023-05-11T00:41:19.572Z,14.10
2023-05-11T00:43:49.426Z,16.95
2023-05-11T00:46:29.225Z,14.50
2023-05-11T00:49:01.091Z,17.23
2023-05-11T00:51:31.656Z,11.43
2023-05-11T00:54:02.246Z,13.05
2023-05-11T00:56:31.671Z,12.57
2023-05-11T00:59:01.397Z,16.23
2023-05-11T01:01:31.450Z,19.25
2023-05-11T01:04:02.806Z,17.33
2023-05-11T01:06:52.446Z,19.73
2023-05-11T01:09:37.563Z,15.77
2023-05-11T01:12:16.140Z,14.98
2023-05-11T01:17:39.281Z,14.60
2023-05-11T01:20:18.727Z,15.98
2023-05-11T01:23:09.956Z,15.38
2023-05-11T01:26:09.010Z,18.15
2023-05-11T01:29:07.438Z,18.73
2023-05-11T01:31:43.030Z,17.35
2023-05-11T01:34:22.732Z,19.98
2023-05-11T01:36:55.872Z,17.05
2023-05-11T01:39:30.848Z,13.18
2023-05-11T01:42:06.749Z,15.52
2023-05-11T01:44:44.611Z,15.77
2023-05-11T01:47:17.660Z,12.38
2023-05-11T01:49:47.813Z,10.82
2023-05-11T01:52:18.730Z,14.77
2023-05-11T01:54:50.499Z,8.82
2023-05-11T01:57:21.350Z,11.50
2023-05-11T01:59:57.180Z,11.65
2023-05-11T02:02:47.081Z,15.00
2023-05-11T02:05:20.300Z,13.57
2023-05-11T02:07:52.219Z,13.63
2023-05-11T02:10:34.102Z,12.48
2023-05-11T02:13:07.495Z,15.23
2023-05-11T02:15:46.650Z,21.70
2023-05-11T02:18:19.464Z,13.95
2023-05-11T02:21:02.394Z,16.48
2023-05-11T02:23:38.050Z,15.85
2023-05-11T02:26:10.310Z,18.70
2023-05-11T02:28:39.938Z,17.15
2023-05-11T02:31:14.663Z,23.08
2023-05-11T02:33:54.398Z,19.92
2023-05-11T02:36:25.712Z,22.83
2023-05-11T02:39:07.721Z,15.85
2023-05-11T02:41:43.010Z,24.45
2023-05-11T02:44:26.428Z,12.23
2023-05-11T02:46:58.153Z,9.63
2023-05-11T02:52:03.489Z,10.33
2023-05-11T02:54:36.377Z,11.40
2023-05-11T02:57:12.775Z,10.98
2023-05-11T02:59:53.924Z,9.18
2023-05-11T03:02:24.119Z,8.52
2023-05-11T03:04:55.550Z,10.15
2023-05-11T03:07:30.508Z,11.98
2023-05-11T03:10:00.043Z,11.85
2023-05-11T03:12:32.711Z,14.35
2023-05-11T03:15:02.626Z,19.48
2023-05-11T03:17:37.554Z,8.18
2023-05-11T03:25:28.817Z,17.13
2023-05-11T03:28:05.517Z,16.85
2023-05-11T03:30:37.097Z,8.82
2023-05-11T03:33:06.675Z,8.75
2023-05-11T03:35:39.727Z,7.68
2023-05-11T03:38:10.975Z,8.98
2023-05-11T03:40:43.495Z,6.82
2023-05-11T03:43:17.208Z,7.75
2023-05-11T03:45:50.505Z,9.20
2023-05-11T03:48:31.873Z,9.80
2023-05-11T03:51:03.634Z,8.32
2023-05-11T03:53:38.430Z,8.27
2023-05-11T03:56:08.844Z,11.40
2023-05-11T03:58:46.293Z,10.13
2023-05-11T04:01:22.464Z,10.10
2023-05-11T04:03:53.110Z,7.60
2023-05-11T04:06:27.231Z,9.23
2023-05-11T04:09:15.159Z,9.65
2023-05-11T04:11:44.764Z,7.60
2023-05-11T04:14:13.969Z,9.88
2023-05-11T04:16:44.721Z,4.93
2023-05-11T04:19:19.702Z,7.80
2023-05-11T04:24:26.334Z,9.57
2023-05-11T04:27:00.217Z,6.18
2023-05-11T04:29:34.761Z,9.32
2023-05-11T04:32:04.727Z,12.00
2023-05-11T04:34:34.685Z,9.13
2023-05-11T04:37:07.823Z,7.45
2023-05-11T04:39:45.233Z,13.15
2023-05-11T04:42:14.878Z,8.43
2023-05-11T04:44:45.888Z,8.93
2023-05-11T04:47:21.363Z,13.38
2023-05-11T04:49:51.794Z,7.82
2023-05-11T04:52:23.693Z,13.23
2023-05-11T04:54:53.273Z,8.43
2023-05-11T04:57:22.560Z,11.52
2023-05-11T04:59:52.357Z,9.02
2023-05-11T05:02:21.861Z,9.38
2023-05-11T05:04:51.511Z,13.95
2023-05-11T05:07:22.749Z,9.77
2023-05-11T05:09:57.848Z,18.67
2023-05-11T05:15:12.284Z,10.10
2023-05-11T05:17:47.888Z,9.35
2023-05-11T05:20:23.468Z,13.10
2023-05-11T05:22:55.000Z,12.90
2023-05-11T05:25:24.556Z,12.65
2023-05-11T05:28:00.164Z,8.60
2023-05-11T05:30:30.033Z,12.73
2023-05-11T05:32:59.764Z,9.27
2023-05-11T05:35:29.071Z,10.05
2023-05-11T05:38:09.413Z,10.38
2023-05-11T05:40:40.591Z,14.02
2023-05-11T05:43:11.603Z,11.63
2023-05-11T05:45:41.644Z,9.80
2023-05-11T05:48:12.167Z,11.63
2023-05-11T05:50:46.872Z,12.52
2023-05-11T05:53:19.991Z,13.20
2023-05-11T05:55:49.377Z,15.38
2023-05-11T05:58:18.638Z,8.70
2023-05-11T06:00:49.053Z,11.30
2023-05-11T06:03:18.828Z,8.52
2023-05-11T06:05:48.337Z,8.40
2023-05-11T06:08:26.422Z,10.07
2023-05-11T06:11:01.230Z,14.98
2023-05-11T06:13:31.028Z,15.80
2023-05-11T06:16:02.812Z,7.97
2023-05-11T06:18:41.004Z,9.05
2023-05-11T06:21:20.669Z,6.22
2023-05-11T06:23:52.269Z,7.32
2023-05-11T06:31:44.016Z,6.38
2023-05-11T06:34:13.316Z,10.20
2023-05-11T06:37:01.038Z,4.57
2023-05-11T06:39:37.819Z,5.95
2023-05-11T06:42:10.201Z,7.32
2023-05-11T06:44:41.115Z,6.05
2023-05-11T06:47:22.798Z,4.63
2023-05-11T06:49:52.375Z,7.07
2023-05-11T06:52:21.650Z,5.78
2023-05-11T06:54:52.945Z,5.00
2023-05-11T06:57:27.512Z,4.57
2023-05-11T07:00:09.798Z,5.10
2023-05-11T07:02:39.886Z,4.50
2023-05-11T07:05:15.017Z,4.10
2023-05-11T07:07:45.065Z,4.45
2023-05-11T07:10:21.501Z,4.68
2023-05-11T07:12:51.366Z,3.65
2023-05-11T07:15:20.815Z,3.58
2023-05-11T07:17:55.411Z,5.07
2023-05-11T07:20:24.846Z,9.65
2023-05-11T07:23:00.545Z,5.03
2023-05-11T07:25:38.205Z,6.97
2023-05-11T07:28:07.573Z,4.20
2023-05-11T07:30:36.821Z,4.25
2023-05-11T07:33:16.775Z,5.53
2023-05-11T07:35:47.595Z,3.45
2023-05-11T07:38:23.757Z,5.15
2023-05-11T07:40:55.090Z,3.47
2023-05-11T07:43:24.408Z,5.00
2023-05-11T07:45:54.104Z,6.93
2023-05-11T07:48:24.153Z,1.83
2023-05-11T07:50:53.422Z,5.40
2023-05-11T07:53:22.765Z,5.47
2023-05-11T07:55:57.403Z,7.45
2023-05-11T07:58:28.895Z,6.45
2023-05-11T08:00:58.797Z,7.85
2023-05-11T08:03:28.299Z,3.90
2023-05-11T08:05:57.779Z,6.55
2023-05-11T08:08:47.152Z,4.80
2023-05-11T08:11:16.647Z,6.93
2023-05-11T08:16:27.947Z,5.43
2023-05-11T08:18:57.369Z,5.22
2023-05-11T08:21:33.064Z,5.43
2023-05-11T08:24:02.669Z,6.50
2023-05-11T08:26:47.746Z,4.75
2023-05-11T08:29:21.219Z,5.72
2023-05-11T08:31:55.668Z,9.93
2023-05-11T08:34:25.209Z,7.75
2023-05-11T08:36:55.758Z,8.98
2023-05-11T08:39:46.126Z,6.32
2023-05-11T08:45:02.497Z,7.35
2023-05-11T08:47:45.540Z,9.80
2023-05-11T08:50:15.345Z,7.18
2023-05-11T08:52:45.234Z,6.15
2023-05-11T08:55:41.067Z,10.23
2023-05-11T08:58:19.197Z,4.72
2023-05-11T09:00:51.460Z,11.18
2023-05-11T09:03:22.150Z,9.00
2023-05-11T09:05:52.367Z,6.53
2023-05-11T09:08:22.509Z,5.15
2023-05-11T09:10:52.104Z,4.55
2023-05-11T09:13:26.682Z,6.28
2023-05-11T09:16:03.333Z,6.78
2023-05-11T09:18:32.809Z,5.38
2023-05-11T09:23:39.323Z,6.13
2023-05-11T09:26:16.753Z,6.35
2023-05-11T09:29:02.415Z,6.88
2023-05-11T09:31:40.478Z,9.50
2023-05-11T09:34:23.117Z,11.05
2023-05-11T09:36:54.267Z,10.25
2023-05-11T09:39:38.261Z,10.23
2023-05-11T09:42:25.102Z,9.30
2023-05-11T09:44:59.627Z,3.67
2023-05-11T09:47:41.724Z,6.95
2023-05-11T09:52:55.760Z,5.15
2023-05-11T09:55:25.490Z,11.20
2023-05-11T09:57:59.873Z,7.72
2023-05-11T10:00:29.330Z,4.43
2023-05-11T10:03:05.481Z,6.00
2023-05-11T10:08:11.976Z,5.50
2023-05-11T10:13:17.086Z,14.65
2023-05-11T10:15:46.528Z,10.45
2023-05-11T10:18:20.118Z,5.75
2023-05-11T10:21:01.451Z,6.72
2023-05-11T10:23:38.456Z,3.15
2023-05-11T10:26:08.372Z,6.18
2023-05-11T10:28:37.946Z,7.57
2023-05-11T10:31:12.851Z,28.90
2023-05-11T10:33:47.261Z,14.27
2023-05-11T10:36:19.773Z,5.68
2023-05-11T10:38:49.520Z,3.88
2023-05-11T10:41:38.319Z,3.92
2023-05-11T10:44:43.809Z,5.10
2023-05-11T10:47:28.739Z,3.53
2023-05-11T10:50:18.510Z,1.20
2023-05-11T10:53:15.075Z,2.75
2023-05-11T10:56:05.866Z,2.60
2023-05-11T10:58:49.870Z,2.63
2023-05-11T11:01:44.091Z,1.90
2023-05-11T11:04:15.794Z,2.67
2023-05-11T11:07:07.547Z,2.35
2023-05-11T11:12:26.562Z,1.55
2023-05-11T11:14:58.333Z,2.38
2023-05-11T11:20:07.118Z,1.38
2023-05-11T11:22:48.816Z,2.33
2023-05-11T11:28:29.878Z,2.22
2023-05-11T11:31:26.624Z,3.00
2023-05-11T11:33:58.588Z,2.65
2023-05-11T11:36:58.472Z,2.83
2023-05-11T11:39:46.776Z,3.22
2023-05-11T11:42:17.342Z,4.65
2023-05-11T11:44:48.136Z,2.00
2023-05-11T11:47:19.508Z,0.70
2023-05-11T11:49:50.790Z,4.25
2023-05-11T11:52:40.680Z,2.10
2023-05-11T11:55:48.724Z,1.35
2023-05-11T11:58:48.195Z,0.60
2023-05-11T12:01:19.597Z,1.10
2023-05-11T12:04:01.238Z,3.80
2023-05-11T12:06:44.203Z,0.90
2023-05-11T12:09:18.778Z,0.77
2023-05-11T12:11:50.732Z,0.80
2023-05-11T12:14:25.690Z,3.55
2023-05-11T12:17:16.187Z,1.30
2023-05-11T12:19:46.673Z,1.50
2023-05-11T12:22:16.768Z,2.55
2023-05-11T12:24:46.344Z,2.60
2023-05-11T12:27:22.915Z,3.70
2023-05-11T12:29:56.330Z,2.35
2023-05-11T12:32:30.176Z,4.78
2023-05-11T12:35:01.132Z,1.45
2023-05-11T12:37:40.907Z,4.05
2023-05-11T12:40:15.896Z,1.58
2023-05-11T12:42:54.477Z,3.92
2023-05-11T12:51:56.240Z,2.08
2023-05-11T12:54:34.108Z,5.55
2023-05-11T12:57:05.197Z,3.15
2023-05-11T12:59:37.109Z,3.05
2023-05-11T13:02:21.163Z,7.32
2023-05-11T13:04:50.773Z,2.05
2023-05-11T13:07:30.365Z,2.42
2023-05-11T13:12:53.292Z,4.45
2023-05-11T13:15:30.637Z,2.95
2023-05-11T13:18:01.840Z,3.10
2023-05-11T13:20:38.029Z,3.92
2023-05-11T13:23:21.413Z,4.00
2023-05-11T13:25:55.152Z,7.32
2023-05-11T13:28:31.164Z,2.05
2023-05-11T13:31:05.532Z,3.00
2023-05-11T13:33:39.933Z,3.65
2023-05-11T13:36:09.769Z,6.13
2023-05-11T13:38:41.156Z,3.63
2023-05-11T13:41:10.542Z,3.47
2023-05-11T13:43:39.939Z,8.00
2023-05-11T13:46:14.706Z,7.45
2023-05-11T13:48:44.638Z,4.07
2023-05-11T13:51:13.902Z,4.85
2023-05-11T13:53:45.982Z,2.72
2023-05-11T13:56:19.377Z,3.08
2023-05-11T13:58:54.665Z,2.38
2023-05-11T14:01:23.959Z,5.20
2023-05-11T14:03:58.413Z,2.33
2023-05-11T14:06:28.204Z,3.47
2023-05-11T14:11:36.389Z,2.25
2023-05-11T14:14:07.454Z,7.20
2023-05-11T14:16:42.612Z,2.50
2023-05-11T14:19:17.998Z,4.25
2023-05-11T14:21:48.551Z,11.48
2023-05-11T14:24:20.191Z,5.07
2023-05-11T14:29:18.453Z,2.45
2023-05-11T14:31:48.363Z,2.88
2023-05-11T14:34:22.830Z,4.35
2023-05-11T14:36:56.291Z,3.25
2023-05-11T14:39:27.558Z,4.90
2023-05-11T14:41:58.570Z,4.50
2023-05-11T14:47:05.040Z,8.00
2023-05-11T14:49:40.714Z,4.47
2023-05-11T14:52:10.411Z,8.18
2023-05-11T14:54:42.216Z,5.10
2023-05-11T14:57:23.075Z,5.47
2023-05-11T14:59:59.670Z,4.07
2023-05-11T15:02:30.494Z,8.48
2023-05-11T15:04:59.807Z,4.45
2023-05-11T15:07:29.052Z,5.35
2023-05-11T15:10:05.694Z,3.28
2023-05-11T15:15:16.988Z,7.43
2023-05-11T15:17:46.538Z,4.13
2023-05-11T15:20:16.358Z,14.23
2023-05-11T15:22:51.186Z,5.13
2023-05-11T15:25:22.778Z,6.05
2023-05-11T15:27:57.774Z,9.95
2023-05-11T15:30:27.408Z,13.18
2023-05-11T15:32:57.099Z,4.15
2023-05-11T15:35:26.756Z,12.82
2023-05-11T15:37:56.124Z,5.88
2023-05-11T15:40:28.083Z,7.97
2023-05-11T15:42:58.810Z,8.25
2023-05-11T15:45:28.890Z,2.88
2023-05-11T15:47:58.404Z,6.35
2023-05-11T15:50:28.275Z,6.45
2023-05-11T15:52:58.117Z,5.68
2023-05-11T15:55:29.423Z,6.15
2023-05-11T15:58:08.066Z,6.53
2023-05-11T16:00:42.994Z,6.55
2023-05-11T16:05:53.812Z,5.72
2023-05-11T16:08:23.431Z,7.45
2023-05-11T16:10:54.723Z,4.95
2023-05-11T16:13:24.482Z,9.40
2023-05-11T16:15:59.122Z,4.85
2023-05-11T16:18:28.731Z,5.45
2023-05-11T16:20:58.079Z,4.47
2023-05-11T16:23:33.065Z,5.93
2023-05-11T16:26:09.487Z,8.18
2023-05-11T16:28:39.090Z,7.20
2023-05-11T16:31:11.225Z,6.72
2023-05-11T16:36:20.832Z,8.88
2023-05-11T16:38:50.191Z,4.43
2023-05-11T16:41:25.906Z,15.75
2023-05-11T16:43:55.323Z,5.53
2023-05-11T16:48:59.932Z,6.40
2023-05-11T16:51:29.520Z,6.03
2023-05-11T16:54:10.919Z,5.57
2023-05-11T16:56:42.531Z,5.00
2023-05-11T16:59:12.068Z,5.45
2023-05-11T17:01:41.696Z,5.03
2023-05-11T17:04:11.662Z,6.28
2023-05-11T17:06:41.090Z,5.93
2023-05-11T17:09:10.428Z,9.93
2023-05-11T17:11:46.668Z,4.95
2023-05-11T17:14:16.358Z,12.00
2023-05-11T17:16:51.077Z,5.55
2023-05-11T17:19:20.899Z,6.85
2023-05-11T17:21:50.269Z,9.10
2023-05-11T17:24:19.909Z,3.45
2023-05-11T17:26:51.326Z,3.92
2023-05-11T17:29:33.462Z,3.40
2023-05-11T17:32:10.041Z,4.65
2023-05-11T17:34:39.537Z,5.18
2023-05-11T17:37:17.366Z,7.28
2023-05-11T17:39:54.294Z,7.93
2023-05-11T17:42:25.796Z,10.15
2023-05-11T17:44:55.600Z,10.52
2023-05-11T17:47:35.038Z,16.33
2023-05-11T17:50:05.646Z,20.10
2023-05-11T17:52:35.436Z,16.30
2023-05-11T17:55:06.285Z,14.60
2023-05-11T17:57:48.089Z,16.48
2023-05-11T18:00:18.666Z,16.55
2023-05-11T18:02:53.466Z,17.77
2023-05-11T18:05:28.107Z,23.13
2023-05-11T18:08:03.784Z,17.48
2023-05-11T18:10:33.233Z,24.13
2023-05-11T18:13:11.419Z,25.92
2023-05-11T18:15:41.137Z,18.48
2023-05-11T18:18:11.765Z,27.83
2023-05-11T18:20:41.959Z,17.38
2023-05-11T18:23:11.958Z,24.15
2023-05-11T18:25:41.583Z,18.48
2023-05-11T18:28:14.260Z,19.63
2023-05-11T18:30:44.165Z,21.77
2023-05-11T18:33:13.470Z,20.40
2023-05-11T18:35:42.892Z,24.08
2023-05-11T18:38:12.407Z,25.35
2023-05-11T18:40:52.910Z,18.35
2023-05-11T18:43:24.924Z,14.25
2023-05-11T18:45:54.707Z,17.00
2023-05-11T18:48:24.469Z,19.27
2023-05-11T18:50:57.210Z,15.82
2023-05-11T18:53:26.924Z,7.47
2023-05-11T18:58:44.937Z,11.10
2023-05-11T19:01:15.016Z,14.95
2023-05-11T19:03:50.169Z,16.35
2023-05-11T19:06:24.683Z,16.98
2023-05-11T19:09:04.395Z,12.93
2023-05-11T19:11:35.192Z,14.82
2023-05-11T19:14:14.142Z,12.60
2023-05-11T19:16:43.669Z,10.00
2023-05-11T19:19:14.425Z,14.52
2023-05-11T19:21:45.195Z,11.68
2023-05-11T19:24:14.876Z,15.37
2023-05-11T19:26:49.644Z,10.05
2023-05-11T19:29:35.183Z,12.35
2023-05-11T19:32:05.209Z,10.23
2023-05-11T19:34:35.900Z,13.25
2023-05-11T19:37:15.912Z,13.18
2023-05-11T19:39:45.838Z,13.65
2023-05-11T19:42:15.834Z,12.60
2023-05-11T19:44:53.177Z,9.93
2023-05-11T19:47:22.650Z,11.65
2023-05-11T19:49:52.083Z,9.63
2023-05-11T19:52:26.702Z,10.02
2023-05-11T19:54:55.917Z,10.98
2023-05-11T19:57:30.046Z,11.55
2023-05-11T20:00:09.339Z,9.43
2023-05-11T20:02:39.247Z,12.63
2023-05-11T20:05:09.450Z,9.73
2023-05-11T20:07:39.237Z,9.25
2023-05-11T20:10:10.173Z,9.95
2023-05-11T20:12:40.112Z,7.50
2023-05-11T20:15:11.933Z,14.70
2023-05-11T20:17:41.499Z,15.32
2023-05-11T20:20:12.385Z,15.50
2023-05-11T20:22:47.690Z,10.05
2023-05-11T20:25:18.907Z,11.65
2023-05-11T20:27:49.454Z,8.32
2023-05-11T20:30:22.062Z,11.35
2023-05-11T20:35:34.924Z,11.20
2023-05-11T20:38:04.268Z,9.65
2023-05-11T20:40:33.736Z,12.02
2023-05-11T20:43:03.306Z,9.82
2023-05-11T20:45:34.589Z,15.15
2023-05-11T20:48:03.967Z,12.32
2023-05-11T20:50:33.528Z,10.50
2023-05-11T20:55:37.916Z,12.95
2023-05-11T20:58:07.242Z,14.15
2023-05-11T21:00:38.479Z,13.98
2023-05-11T21:03:08.209Z,6.25
2023-05-11T21:05:38.998Z,12.82
2023-05-11T21:08:08.325Z,15.25
2023-05-11T21:10:42.610Z,9.10
2023-05-11T21:13:12.904Z,16.48
2023-05-11T21:15:44.149Z,13.07
2023-05-11T21:18:13.633Z,17.20
2023-05-11T21:20:43.394Z,20.40
2023-05-11T21:23:13.898Z,14.38
2023-05-11T21:25:43.198Z,13.30
2023-05-11T21:28:22.684Z,15.18
2023-05-11T21:30:59.279Z,13.68
2023-05-11T21:33:28.873Z,15.75
2023-05-11T21:35:58.439Z,15.98
2023-05-11T21:38:28.000Z,13.07
2023-05-11T21:40:57.983Z,15.77
2023-05-11T21:43:27.382Z,8.65
2023-05-11T21:45:59.039Z,12.27
2023-05-11T21:48:28.410Z,10.75
2023-05-11T21:50:57.861Z,8.73
2023-05-11T21:53:27.368Z,9.02
2023-05-11T21:55:57.053Z,13.07
2023-05-11T21:58:32.346Z,12.85
2023-05-11T22:01:03.468Z,10.43
2023-05-11T22:06:18.200Z,9.20
2023-05-11T22:08:52.485Z,14.60
2023-05-11T22:11:22.276Z,10.07
2023-05-11T22:13:51.761Z,14.98
2023-05-11T22:16:27.326Z,11.23
2023-05-11T22:18:56.838Z,11.77
2023-05-11T22:21:27.541Z,11.55
2023-05-11T22:23:56.956Z,14.55
2023-05-11T22:26:36.271Z,14.45
2023-05-11T22:29:06.379Z,10.55
2023-05-11T22:31:38.276Z,9.63
2023-05-11T22:34:07.704Z,12.82
2023-05-11T22:36:37.053Z,13.90
2023-05-11T22:39:06.846Z,9.95
2023-05-11T22:41:36.111Z,10.07
2023-05-11T22:44:05.636Z,10.88
2023-05-11T22:46:42.005Z,8.20
2023-05-11T22:49:12.079Z,12.35
2023-05-11T22:51:41.540Z,14.70
2023-05-11T22:54:11.090Z,10.07
2023-05-11T22:56:40.354Z,16.13
2023-05-11T22:59:09.988Z,10.43
2023-05-11T23:01:39.345Z,18.80
2023-05-11T23:04:10.571Z,12.32
2023-05-11T23:06:50.070Z,12.93
2023-05-11T23:09:19.376Z,14.52
2023-05-11T23:11:48.653Z,10.93
2023-05-11T23:14:29.978Z,13.25
2023-05-11T23:16:59.454Z,16.00
2023-05-11T23:19:30.702Z,13.57
2023-05-11T23:24:35.821Z,9.00
2023-05-11T23:27:05.332Z,9.57
2023-05-11T23:29:35.026Z,11.85
2023-05-11T23:32:05.661Z,9.00
2023-05-11T23:34:37.675Z,8.80
2023-05-11T23:37:12.307Z,14.23
2023-05-11T23:39:41.694Z,12.52
2023-05-11T23:42:11.193Z,7.13
2023-05-11T23:44:47.382Z,15.13
2023-05-11T23:47:16.742Z,13.77
2023-05-11T23:49:48.080Z,15.27
2023-05-11T23:52:17.456Z,9.73
2023-05-11T23:54:52.278Z,10.32
2023-05-11T23:57:22.977Z,18.10
2023-05-11T23:59:57.308Z,12.73
